Sand Lake, Florida
Current Conditions -  °F | °C
As of 2:53 PM on Thursday 23 Oct 2014 (Local Time) from KMCO Reporting Station
Few Clouds Few Clouds  
Wind Chill: 28°   Ceiling: Unl
Heat Index: 28°   Visibility: 10mi
Dew Point: 13°   Wind: 10mph
Humidity: 41%   Direction: 40°NE
Pressure: 29.95"   Gusts: NA
Location:  28.4565°N, 81.4676°W
Report Text: KMCO 231853Z 04009KT 10SM FEW050 FEW250 28/13 A2995 RMK AO2 SLP140 T02780133 $
Loading
Personal Weather Stations






























Interactive Weather Map
Tropical Storm Tracking
New forecast layout! Learn more

10-Day Weather Forecast

Advertisements
Track Severe Weather on mobile